sensor_id;sensor_type;location;lat;lon;timestamp;temperature;humidity
19172;DHT22;9718;52.200;21.052;2022-11-21T00:03:45;-3.60;99.90
19172;DHT22;9718;52.200;21.052;2022-11-21T00:06:15;-3.70;99.90
19172;DHT22;9718;52.200;21.052;2022-11-21T00:08:43;-3.70;99.90
19172;DHT22;9718;52.200;21.052;2022-11-21T00:11:11;-3.80;99.90
19172;DHT22;9718;52.200;21.052;2022-11-21T00:13:39;-3.70;99.90
19172;DHT22;9718;52.200;21.052;2022-11-21T00:16:09;-3.70;99.90
19172;DHT22;9718;52.200;21.052;2022-11-21T00:18:38;-3.60;99.90
19172;DHT22;9718;52.200;21.052;2022-11-21T00:21:09;-3.40;99.90
19172;DHT22;9718;52.200;21.052;2022-11-21T00:23:37;-3.30;99.90
19172;DHT22;9718;52.200;21.052;2022-11-21T00:26:09;-3.10;99.90
19172;DHT22;9718;52.200;21.052;2022-11-21T00:28:37;-3.00;99.90
19172;DHT22;9718;52.200;21.052;2022-11-21T00:31:06;-2.90;99.90
19172;DHT22;9718;52.200;21.052;2022-11-21T00:33:34;-2.90;99.90
19172;DHT22;9718;52.200;21.052;2022-11-21T00:36:07;-2.90;99.90
19172;DHT22;9718;52.200;21.052;2022-11-21T00:38:37;-2.90;99.90
19172;DHT22;9718;52.200;21.052;2022-11-21T00:41:05;-2.80;99.90
19172;DHT22;9718;52.200;21.052;2022-11-21T00:43:33;-2.80;99.90
19172;DHT22;9718;52.200;21.052;2022-11-21T00:46:02;-2.80;99.90
19172;DHT22;9718;52.200;21.052;2022-11-21T00:48:31;-2.70;99.90
19172;DHT22;9718;52.200;21.052;2022-11-21T00:51:02;-2.70;99.90
19172;DHT22;9718;52.200;21.052;2022-11-21T00:53:29;-2.60;99.90
19172;DHT22;9718;52.200;21.052;2022-11-21T00:55:57;-2.50;99.90
19172;DHT22;9718;52.200;21.052;2022-11-21T00:58:25;-2.50;99.90
19172;DHT22;9718;52.200;21.052;2022-11-21T01:01:04;-2.50;99.90
19172;DHT22;9718;52.200;21.052;2022-11-21T01:03:33;-2.40;99.90
19172;DHT22;9718;52.200;21.052;2022-11-21T01:06:12;-2.50;99.90
19172;DHT22;9718;52.200;21.052;2022-11-21T01:08:41;-2.50;99.90
19172;DHT22;9718;52.200;21.052;2022-11-21T01:11:15;-2.50;99.90
19172;DHT22;9718;52.200;21.052;2022-11-21T01:13:44;-2.60;99.90
19172;DHT22;9718;52.200;21.052;2022-11-21T01:18:41;-2.70;99.90
19172;DHT22;9718;52.200;21.052;2022-11-21T01:21:14;-2.80;99.90
19172;DHT22;9718;52.200;21.052;2022-11-21T01:23:42;-3.00;99.90
19172;DHT22;9718;52.200;21.052;2022-11-21T01:26:15;-3.10;99.90
19172;DHT22;9718;52.200;21.052;2022-11-21T01:28:43;-3.20;99.90
19172;DHT22;9718;52.200;21.052;2022-11-21T01:31:19;-3.30;99.90
19172;DHT22;9718;52.200;21.052;2022-11-21T01:33:47;-3.30;99.90
19172;DHT22;9718;52.200;21.052;2022-11-21T01:36:29;-3.30;99.90
19172;DHT22;9718;52.200;21.052;2022-11-21T01:39:00;-3.30;99.90
19172;DHT22;9718;52.200;21.052;2022-11-21T01:41:40;-3.30;99.90
19172;DHT22;9718;52.200;21.052;2022-11-21T01:44:43;-3.40;99.90
19172;DHT22;9718;52.200;21.052;2022-11-21T01:47:10;-3.40;99.90
19172;DHT22;9718;52.200;21.052;2022-11-21T01:49:39;-3.40;99.90
19172;DHT22;9718;52.200;21.052;2022-11-21T01:52:26;-3.30;99.90
19172;DHT22;9718;52.200;21.052;2022-11-21T01:55:04;-3.40;99.90
19172;DHT22;9718;52.200;21.052;2022-11-21T01:57:44;-3.40;99.90
19172;DHT22;9718;52.200;21.052;2022-11-21T02:00:23;-3.40;99.90
19172;DHT22;9718;52.200;21.052;2022-11-21T02:02:56;-3.40;99.90
19172;DHT22;9718;52.200;21.052;2022-11-21T02:05:28;-3.50;99.90
19172;DHT22;9718;52.200;21.052;2022-11-21T02:07:57;-3.50;99.90
19172;DHT22;9718;52.200;21.052;2022-11-21T02:10:28;-3.70;99.90
19172;DHT22;9718;52.200;21.052;2022-11-21T02:12:57;-3.90;99.90
19172;DHT22;9718;52.200;21.052;2022-11-21T02:15:27;-4.00;99.90
19172;DHT22;9718;52.200;21.052;2022-11-21T02:17:55;-4.30;99.90
19172;DHT22;9718;52.200;21.052;2022-11-21T02:20:27;-4.50;99.90
19172;DHT22;9718;52.200;21.052;2022-11-21T02:23:49;-4.60;99.90
19172;DHT22;9718;52.200;21.052;2022-11-21T02:26:08;-4.70;99.90
19172;DHT22;9718;52.200;21.052;2022-11-21T02:28:36;-4.70;99.90
19172;DHT22;9718;52.200;21.052;2022-11-21T02:31:03;-4.80;99.90
19172;DHT22;9718;52.200;21.052;2022-11-21T02:33:32;-4.80;99.90
19172;DHT22;9718;52.200;21.052;2022-11-21T02:36:00;-4.80;99.90
19172;DHT22;9718;52.200;21.052;2022-11-21T02:38:32;-4.80;99.90
19172;DHT22;9718;52.200;21.052;2022-11-21T02:43:42;-4.70;99.90
19172;DHT22;9718;52.200;21.052;2022-11-21T02:46:11;-4.80;99.90
19172;DHT22;9718;52.200;21.052;2022-11-21T02:48:40;-4.90;99.90
19172;DHT22;9718;52.200;21.052;2022-11-21T02:51:08;-4.90;99.90
19172;DHT22;9718;52.200;21.052;2022-11-21T02:53:35;-4.90;99.90
19172;DHT22;9718;52.200;21.052;2022-11-21T02:56:02;-5.00;99.90
19172;DHT22;9718;52.200;21.052;2022-11-21T02:58:30;-5.00;99.90
19172;DHT22;9718;52.200;21.052;2022-11-21T03:00:58;-5.10;99.90
19172;DHT22;9718;52.200;21.052;2022-11-21T03:03:26;-5.10;99.90
19172;DHT22;9718;52.200;21.052;2022-11-21T03:05:54;-5.10;99.90
19172;DHT22;9718;52.200;21.052;2022-11-21T03:08:22;-5.20;99.90
19172;DHT22;9718;52.200;21.052;2022-11-21T03:10:50;-5.20;99.90
19172;DHT22;9718;52.200;21.052;2022-11-21T03:13:17;-5.20;99.90
19172;DHT22;9718;52.200;21.052;2022-11-21T03:15:46;-5.20;99.90
19172;DHT22;9718;52.200;21.052;2022-11-21T03:18:13;-5.20;99.90
19172;DHT22;9718;52.200;21.052;2022-11-21T03:20:41;-5.30;99.90
19172;DHT22;9718;52.200;21.052;2022-11-21T03:23:09;-5.30;99.90
19172;DHT22;9718;52.200;21.052;2022-11-21T03:25:36;-5.40;99.90
19172;DHT22;9718;52.200;21.052;2022-11-21T03:28:04;-5.50;99.90
19172;DHT22;9718;52.200;21.052;2022-11-21T03:30:31;-5.60;99.90
19172;DHT22;9718;52.200;21.052;2022-11-21T03:33:01;-5.60;99.90
19172;DHT22;9718;52.200;21.052;2022-11-21T03:35:28;-5.60;99.90
19172;DHT22;9718;52.200;21.052;2022-11-21T03:37:56;-5.60;99.90
19172;DHT22;9718;52.200;21.052;2022-11-21T03:40:23;-5.60;99.90
19172;DHT22;9718;52.200;21.052;2022-11-21T03:42:50;-5.60;99.90
19172;DHT22;9718;52.200;21.052;2022-11-21T03:45:19;-5.70;99.90
19172;DHT22;9718;52.200;21.052;2022-11-21T03:47:47;-5.80;99.90
19172;DHT22;9718;52.200;21.052;2022-11-21T03:50:14;-5.90;99.90
19172;DHT22;9718;52.200;21.052;2022-11-21T03:52:45;-5.90;99.90
19172;DHT22;9718;52.200;21.052;2022-11-21T03:55:12;-5.90;99.90
19172;DHT22;9718;52.200;21.052;2022-11-21T03:57:40;-5.90;99.90
19172;DHT22;9718;52.200;21.052;2022-11-21T04:00:09;-5.80;99.90
19172;DHT22;9718;52.200;21.052;2022-11-21T04:02:37;-5.70;99.90
19172;DHT22;9718;52.200;21.052;2022-11-21T04:05:06;-5.70;99.90
19172;DHT22;9718;52.200;21.052;2022-11-21T04:07:35;-5.70;99.90
19172;DHT22;9718;52.200;21.052;2022-11-21T04:10:03;-5.70;99.90
19172;DHT22;9718;52.200;21.052;2022-11-21T04:12:31;-5.80;99.90
19172;DHT22;9718;52.200;21.052;2022-11-21T04:14:58;-5.90;99.90
19172;DHT22;9718;52.200;21.052;2022-11-21T04:17:26;-5.90;99.90
19172;DHT22;9718;52.200;21.052;2022-11-21T04:19:54;-6.00;99.90
19172;DHT22;9718;52.200;21.052;2022-11-21T04:22:21;-6.00;99.90
19172;DHT22;9718;52.200;21.052;2022-11-21T04:24:48;-5.90;99.90
19172;DHT22;9718;52.200;21.052;2022-11-21T04:27:17;-5.90;99.90
19172;DHT22;9718;52.200;21.052;2022-11-21T04:29:44;-5.90;99.90
19172;DHT22;9718;52.200;21.052;2022-11-21T04:32:12;-5.90;99.90
19172;DHT22;9718;52.200;21.052;2022-11-21T04:34:41;-6.00;99.90
19172;DHT22;9718;52.200;21.052;2022-11-21T04:37:08;-6.10;99.90
19172;DHT22;9718;52.200;21.052;2022-11-21T04:39:37;-6.10;99.90
19172;DHT22;9718;52.200;21.052;2022-11-21T04:42:05;-6.10;99.90
19172;DHT22;9718;52.200;21.052;2022-11-21T04:44:32;-6.10;99.90
19172;DHT22;9718;52.200;21.052;2022-11-21T04:47:00;-6.10;99.90
19172;DHT22;9718;52.200;21.052;2022-11-21T04:49:31;-6.10;99.90
19172;DHT22;9718;52.200;21.052;2022-11-21T04:51:59;-6.00;99.90
19172;DHT22;9718;52.200;21.052;2022-11-21T04:54:27;-6.00;99.90
19172;DHT22;9718;52.200;21.052;2022-11-21T04:56:56;-6.00;99.90
19172;DHT22;9718;52.200;21.052;2022-11-21T04:59:23;-6.00;99.90
19172;DHT22;9718;52.200;21.052;2022-11-21T05:01:50;-6.00;99.90
19172;DHT22;9718;52.200;21.052;2022-11-21T05:04:18;-6.00;99.90
19172;DHT22;9718;52.200;21.052;2022-11-21T05:06:45;-6.00;99.90
19172;DHT22;9718;52.200;21.052;2022-11-21T05:09:14;-6.00;99.90
19172;DHT22;9718;52.200;21.052;2022-11-21T05:11:41;-6.00;99.90
19172;DHT22;9718;52.200;21.052;2022-11-21T05:14:27;-5.90;99.90
19172;DHT22;9718;52.200;21.052;2022-11-21T05:16:55;-5.70;99.90
19172;DHT22;9718;52.200;21.052;2022-11-21T05:19:23;-5.70;99.90
19172;DHT22;9718;52.200;21.052;2022-11-21T05:21:50;-5.70;99.90
19172;DHT22;9718;52.200;21.052;2022-11-21T05:24:17;-5.70;99.90
19172;DHT22;9718;52.200;21.052;2022-11-21T05:26:45;-5.70;99.90
19172;DHT22;9718;52.200;21.052;2022-11-21T05:29:13;-5.70;99.90
19172;DHT22;9718;52.200;21.052;2022-11-21T05:31:41;-5.70;99.90
19172;DHT22;9718;52.200;21.052;2022-11-21T05:34:08;-5.70;99.90
19172;DHT22;9718;52.200;21.052;2022-11-21T05:36:38;-5.60;99.90
19172;DHT22;9718;52.200;21.052;2022-11-21T05:39:05;-5.60;99.90
19172;DHT22;9718;52.200;21.052;2022-11-21T05:41:33;-5.60;99.90
19172;DHT22;9718;52.200;21.052;2022-11-21T05:44:00;-5.50;99.90
19172;DHT22;9718;52.200;21.052;2022-11-21T05:46:29;-5.50;99.90
19172;DHT22;9718;52.200;21.052;2022-11-21T05:48:57;-5.50;99.90
19172;DHT22;9718;52.200;21.052;2022-11-21T05:51:25;-5.50;99.90
19172;DHT22;9718;52.200;21.052;2022-11-21T05:53:52;-5.50;99.90
19172;DHT22;9718;52.200;21.052;2022-11-21T05:56:20;-5.50;99.90
19172;DHT22;9718;52.200;21.052;2022-11-21T05:58:47;-5.50;99.90
19172;DHT22;9718;52.200;21.052;2022-11-21T06:01:17;-5.40;99.90
19172;DHT22;9718;52.200;21.052;2022-11-21T06:04:04;-5.40;99.90
19172;DHT22;9718;52.200;21.052;2022-11-21T06:06:34;-5.30;99.90
19172;DHT22;9718;52.200;21.052;2022-11-21T06:09:03;-5.20;99.90
19172;DHT22;9718;52.200;21.052;2022-11-21T06:11:33;-5.20;99.90
19172;DHT22;9718;52.200;21.052;2022-11-21T06:14:02;-5.10;99.90
19172;DHT22;9718;52.200;21.052;2022-11-21T06:16:35;-5.10;99.90
19172;DHT22;9718;52.200;21.052;2022-11-21T06:19:03;-5.00;99.90
19172;DHT22;9718;52.200;21.052;2022-11-21T06:21:36;-4.90;99.90
19172;DHT22;9718;52.200;21.052;2022-11-21T06:24:04;-4.80;99.90
19172;DHT22;9718;52.200;21.052;2022-11-21T06:26:37;-4.70;99.90
19172;DHT22;9718;52.200;21.052;2022-11-21T06:29:05;-4.60;99.90
19172;DHT22;9718;52.200;21.052;2022-11-21T06:31:37;-4.60;99.90
19172;DHT22;9718;52.200;21.052;2022-11-21T06:34:20;-4.40;99.90
19172;DHT22;9718;52.200;21.052;2022-11-21T06:36:48;-4.30;99.90
19172;DHT22;9718;52.200;21.052;2022-11-21T06:39:18;-4.20;99.90
19172;DHT22;9718;52.200;21.052;2022-11-21T06:42:01;-4.10;99.90
19172;DHT22;9718;52.200;21.052;2022-11-21T06:44:43;-4.00;99.90
19172;DHT22;9718;52.200;21.052;2022-11-21T06:47:12;-3.90;99.90
19172;DHT22;9718;52.200;21.052;2022-11-21T06:49:40;-3.80;99.90
19172;DHT22;9718;52.200;21.052;2022-11-21T06:52:26;-3.70;99.90
19172;DHT22;9718;52.200;21.052;2022-11-21T06:55:21;-3.50;99.90
19172;DHT22;9718;52.200;21.052;2022-11-21T06:58:47;-3.50;99.90
19172;DHT22;9718;52.200;21.052;2022-11-21T07:01:52;-3.40;99.90
19172;DHT22;9718;52.200;21.052;2022-11-21T07:08:33;-3.40;99.90
19172;DHT22;9718;52.200;21.052;2022-11-21T07:11:56;-3.40;99.90
19172;DHT22;9718;52.200;21.052;2022-11-21T07:15:54;-3.30;99.90
19172;DHT22;9718;52.200;21.052;2022-11-21T07:18:58;-3.10;99.90
19172;DHT22;9718;52.200;21.052;2022-11-21T07:21:50;-3.10;99.90
19172;DHT22;9718;52.200;21.052;2022-11-21T07:25:29;-3.00;99.90
19172;DHT22;9718;52.200;21.052;2022-11-21T07:28:32;-2.90;99.90
19172;DHT22;9718;52.200;21.052;2022-11-21T07:32:16;-2.80;99.90
19172;DHT22;9718;52.200;21.052;2022-11-21T07:34:47;-2.60;99.90
19172;DHT22;9718;52.200;21.052;2022-11-21T07:37:18;-2.40;99.90
19172;DHT22;9718;52.200;21.052;2022-11-21T07:40:14;-2.30;99.90
19172;DHT22;9718;52.200;21.052;2022-11-21T07:42:43;-2.10;99.90
19172;DHT22;9718;52.200;21.052;2022-11-21T07:45:16;-2.00;99.90
19172;DHT22;9718;52.200;21.052;2022-11-21T07:48:04;-1.80;99.90
19172;DHT22;9718;52.200;21.052;2022-11-21T07:50:48;-1.60;99.90
19172;DHT22;9718;52.200;21.052;2022-11-21T07:53:34;-1.40;99.90
19172;DHT22;9718;52.200;21.052;2022-11-21T07:56:18;-1.10;99.90
19172;DHT22;9718;52.200;21.052;2022-11-21T07:59:01;-0.90;99.90
19172;DHT22;9718;52.200;21.052;2022-11-21T08:01:50;-0.50;99.90
19172;DHT22;9718;52.200;21.052;2022-11-21T08:04:32;0.00;99.90
19172;DHT22;9718;52.200;21.052;2022-11-21T08:07:18;0.20;99.90
19172;DHT22;9718;52.200;21.052;2022-11-21T08:09:46;0.10;99.90
19172;DHT22;9718;52.200;21.052;2022-11-21T08:12:14;0.20;99.90
19172;DHT22;9718;52.200;21.052;2022-11-21T08:14:43;0.20;99.90
19172;DHT22;9718;52.200;21.052;2022-11-21T08:17:11;0.30;99.90
19172;DHT22;9718;52.200;21.052;2022-11-21T08:19:40;0.70;99.90
19172;DHT22;9718;52.200;21.052;2022-11-21T08:22:16;0.90;99.90
19172;DHT22;9718;52.200;21.052;2022-11-21T08:24:44;1.10;99.90
19172;DHT22;9718;52.200;21.052;2022-11-21T08:27:12;1.20;99.90
19172;DHT22;9718;52.200;21.052;2022-11-21T08:29:40;1.50;99.90
19172;DHT22;9718;52.200;21.052;2022-11-21T08:32:08;1.60;99.90
19172;DHT22;9718;52.200;21.052;2022-11-21T08:34:36;1.50;99.90
19172;DHT22;9718;52.200;21.052;2022-11-21T08:37:04;1.20;99.90
19172;DHT22;9718;52.200;21.052;2022-11-21T08:39:31;1.00;99.90
19172;DHT22;9718;52.200;21.052;2022-11-21T08:42:01;1.10;99.90
19172;DHT22;9718;52.200;21.052;2022-11-21T08:44:33;1.20;99.90
19172;DHT22;9718;52.200;21.052;2022-11-21T08:47:01;1.40;99.90
19172;DHT22;9718;52.200;21.052;2022-11-21T08:49:29;1.50;99.90
19172;DHT22;9718;52.200;21.052;2022-11-21T08:51:57;1.70;99.90
19172;DHT22;9718;52.200;21.052;2022-11-21T08:54:25;1.90;99.90
19172;DHT22;9718;52.200;21.052;2022-11-21T08:56:53;1.90;99.90
19172;DHT22;9718;52.200;21.052;2022-11-21T08:59:20;2.20;99.90
19172;DHT22;9718;52.200;21.052;2022-11-21T09:01:48;2.50;99.90
19172;DHT22;9718;52.200;21.052;2022-11-21T09:04:22;2.70;99.90
19172;DHT22;9718;52.200;21.052;2022-11-21T09:06:50;2.80;99.90
19172;DHT22;9718;52.200;21.052;2022-11-21T09:09:17;2.90;99.90
19172;DHT22;9718;52.200;21.052;2022-11-21T09:11:51;2.90;99.90
19172;DHT22;9718;52.200;21.052;2022-11-21T09:14:19;3.30;99.90
19172;DHT22;9718;52.200;21.052;2022-11-21T09:17:33;3.60;99.90
19172;DHT22;9718;52.200;21.052;2022-11-21T09:20:20;3.50;99.90
19172;DHT22;9718;52.200;21.052;2022-11-21T09:22:47;3.80;99.90
19172;DHT22;9718;52.200;21.052;2022-11-21T09:25:16;4.10;99.90
19172;DHT22;9718;52.200;21.052;2022-11-21T09:27:43;4.20;99.90
19172;DHT22;9718;52.200;21.052;2022-11-21T09:30:11;4.20;99.90
19172;DHT22;9718;52.200;21.052;2022-11-21T09:32:38;4.20;99.90
19172;DHT22;9718;52.200;21.052;2022-11-21T09:35:07;4.00;99.90
19172;DHT22;9718;52.200;21.052;2022-11-21T09:37:36;3.80;99.90
19172;DHT22;9718;52.200;21.052;2022-11-21T09:40:05;3.20;99.90
19172;DHT22;9718;52.200;21.052;2022-11-21T09:45:51;2.80;99.90
19172;DHT22;9718;52.200;21.052;2022-11-21T09:49:21;3.10;99.90
19172;DHT22;9718;52.200;21.052;2022-11-21T09:51:42;3.40;99.90
19172;DHT22;9718;52.200;21.052;2022-11-21T09:54:16;3.40;99.90
19172;DHT22;9718;52.200;21.052;2022-11-21T09:56:46;3.30;99.90
19172;DHT22;9718;52.200;21.052;2022-11-21T10:02:01;3.30;99.90
19172;DHT22;9718;52.200;21.052;2022-11-21T10:04:30;3.40;99.90
19172;DHT22;9718;52.200;21.052;2022-11-21T10:07:01;3.80;99.90
19172;DHT22;9718;52.200;21.052;2022-11-21T10:12:27;4.00;99.90
19172;DHT22;9718;52.200;21.052;2022-11-21T10:15:25;4.00;99.90
19172;DHT22;9718;52.200;21.052;2022-11-21T10:26:16;4.60;99.90
19172;DHT22;9718;52.200;21.052;2022-11-21T10:29:00;4.40;99.90
19172;DHT22;9718;52.200;21.052;2022-11-21T10:31:36;4.60;99.90
19172;DHT22;9718;52.200;21.052;2022-11-21T10:34:24;4.80;99.90
19172;DHT22;9718;52.200;21.052;2022-11-21T10:37:10;5.20;99.90
19172;DHT22;9718;52.200;21.052;2022-11-21T10:39:48;5.30;99.90
19172;DHT22;9718;52.200;21.052;2022-11-21T10:45:01;5.50;99.90
19172;DHT22;9718;52.200;21.052;2022-11-21T10:47:50;5.70;99.90
19172;DHT22;9718;52.200;21.052;2022-11-21T10:50:44;5.80;99.90
19172;DHT22;9718;52.200;21.052;2022-11-21T10:53:19;5.70;99.90
19172;DHT22;9718;52.200;21.052;2022-11-21T10:56:20;5.70;99.90
19172;DHT22;9718;52.200;21.052;2022-11-21T10:58:57;5.80;99.90
19172;DHT22;9718;52.200;21.052;2022-11-21T11:01:31;5.80;99.90
19172;DHT22;9718;52.200;21.052;2022-11-21T11:06:57;5.50;99.90
19172;DHT22;9718;52.200;21.052;2022-11-21T11:09:32;5.50;99.90
19172;DHT22;9718;52.200;21.052;2022-11-21T11:12:28;5.60;99.90
19172;DHT22;9718;52.200;21.052;2022-11-21T11:15:24;5.70;99.90
19172;DHT22;9718;52.200;21.052;2022-11-21T11:17:57;5.70;99.90
19172;DHT22;9718;52.200;21.052;2022-11-21T11:26:00;5.70;99.90
19172;DHT22;9718;52.200;21.052;2022-11-21T11:28:35;5.90;99.90
19172;DHT22;9718;52.200;21.052;2022-11-21T11:31:07;5.80;99.90
19172;DHT22;9718;52.200;21.052;2022-11-21T11:33:36;5.50;99.90
19172;DHT22;9718;52.200;21.052;2022-11-21T11:36:24;5.10;99.90
19172;DHT22;9718;52.200;21.052;2022-11-21T11:38:58;4.60;99.90
19172;DHT22;9718;52.200;21.052;2022-11-21T11:42:06;4.30;99.90
19172;DHT22;9718;52.200;21.052;2022-11-21T11:48:07;4.40;99.90
19172;DHT22;9718;52.200;21.052;2022-11-21T11:51:08;4.70;99.90
19172;DHT22;9718;52.200;21.052;2022-11-21T11:53:41;4.50;99.90
19172;DHT22;9718;52.200;21.052;2022-11-21T11:56:16;4.50;99.90
19172;DHT22;9718;52.200;21.052;2022-11-21T11:58:47;4.40;99.90
19172;DHT22;9718;52.200;21.052;2022-11-21T12:01:33;4.30;99.90
19172;DHT22;9718;52.200;21.052;2022-11-21T12:04:22;4.10;99.90
19172;DHT22;9718;52.200;21.052;2022-11-21T12:12:54;3.90;99.90
19172;DHT22;9718;52.200;21.052;2022-11-21T12:21:21;4.30;99.90
19172;DHT22;9718;52.200;21.052;2022-11-21T12:24:00;4.20;99.90
19172;DHT22;9718;52.200;21.052;2022-11-21T12:26:53;4.00;99.90
19172;DHT22;9718;52.200;21.052;2022-11-21T12:32:40;3.90;99.90
19172;DHT22;9718;52.200;21.052;2022-11-21T12:41:17;3.40;99.90
19172;DHT22;9718;52.200;21.052;2022-11-21T12:44:24;3.20;99.90
19172;DHT22;9718;52.200;21.052;2022-11-21T12:53:10;3.20;99.90
19172;DHT22;9718;52.200;21.052;2022-11-21T12:56:05;3.20;99.90
19172;DHT22;9718;52.200;21.052;2022-11-21T12:58:40;3.30;99.90
19172;DHT22;9718;52.200;21.052;2022-11-21T13:01:38;3.40;99.90
19172;DHT22;9718;52.200;21.052;2022-11-21T13:04:30;3.40;99.90
19172;DHT22;9718;52.200;21.052;2022-11-21T13:07:02;3.40;99.90
19172;DHT22;9718;52.200;21.052;2022-11-21T13:09:54;3.20;99.90
19172;DHT22;9718;52.200;21.052;2022-11-21T13:12:39;3.10;99.90
19172;DHT22;9718;52.200;21.052;2022-11-21T13:15:20;3.00;99.90
19172;DHT22;9718;52.200;21.052;2022-11-21T13:20:23;3.00;99.90
19172;DHT22;9718;52.200;21.052;2022-11-21T13:22:57;3.00;99.90
19172;DHT22;9718;52.200;21.052;2022-11-21T13:30:54;2.90;99.90
19172;DHT22;9718;52.200;21.052;2022-11-21T13:49:42;2.90;99.90
19172;DHT22;9718;52.200;21.052;2022-11-21T13:52:23;2.80;99.90
19172;DHT22;9718;52.200;21.052;2022-11-21T14:01:13;2.70;99.90
19172;DHT22;9718;52.200;21.052;2022-11-21T14:06:51;2.70;99.90
19172;DHT22;9718;52.200;21.052;2022-11-21T14:09:27;2.60;99.90
19172;DHT22;9718;52.200;21.052;2022-11-21T14:12:03;2.60;99.90
19172;DHT22;9718;52.200;21.052;2022-11-21T14:14:48;2.60;99.90
19172;DHT22;9718;52.200;21.052;2022-11-21T14:28:28;2.50;99.90
19172;DHT22;9718;52.200;21.052;2022-11-21T14:31:01;2.50;99.90
19172;DHT22;9718;52.200;21.052;2022-11-21T14:33:32;2.40;99.90
19172;DHT22;9718;52.200;21.052;2022-11-21T14:36:18;2.30;99.90
19172;DHT22;9718;52.200;21.052;2022-11-21T14:38:53;2.20;99.90
19172;DHT22;9718;52.200;21.052;2022-11-21T14:41:42;2.10;99.90
19172;DHT22;9718;52.200;21.052;2022-11-21T14:46:40;2.00;99.90
19172;DHT22;9718;52.200;21.052;2022-11-21T14:49:20;2.00;99.90
19172;DHT22;9718;52.200;21.052;2022-11-21T14:54:22;1.80;99.90
19172;DHT22;9718;52.200;21.052;2022-11-21T14:57:01;1.70;99.90
19172;DHT22;9718;52.200;21.052;2022-11-21T14:59:32;1.70;99.90
19172;DHT22;9718;52.200;21.052;2022-11-21T15:02:15;1.80;99.90
19172;DHT22;9718;52.200;21.052;2022-11-21T15:04:44;1.80;99.90
19172;DHT22;9718;52.200;21.052;2022-11-21T15:09:44;1.70;99.90
19172;DHT22;9718;52.200;21.052;2022-11-21T15:15:29;1.60;99.90
19172;DHT22;9718;52.200;21.052;2022-11-21T15:17:59;1.60;99.90
19172;DHT22;9718;52.200;21.052;2022-11-21T15:20:56;1.60;99.90
19172;DHT22;9718;52.200;21.052;2022-11-21T15:23:35;1.70;99.90
19172;DHT22;9718;52.200;21.052;2022-11-21T15:26:05;1.70;99.90
19172;DHT22;9718;52.200;21.052;2022-11-21T15:28:32;1.70;99.90
19172;DHT22;9718;52.200;21.052;2022-11-21T15:31:16;1.60;99.90
19172;DHT22;9718;52.200;21.052;2022-11-21T15:34:02;1.60;99.90
19172;DHT22;9718;52.200;21.052;2022-11-21T15:39:31;1.60;99.90
19172;DHT22;9718;52.200;21.052;2022-11-21T15:47:47;1.50;99.90
19172;DHT22;9718;52.200;21.052;2022-11-21T15:50:15;1.50;99.90
19172;DHT22;9718;52.200;21.052;2022-11-21T15:52:46;1.40;99.90
19172;DHT22;9718;52.200;21.052;2022-11-21T15:55:25;1.40;99.90
19172;DHT22;9718;52.200;21.052;2022-11-21T15:57:55;1.40;99.90
19172;DHT22;9718;52.200;21.052;2022-11-21T16:00:22;1.30;99.90
19172;DHT22;9718;52.200;21.052;2022-11-21T16:02:49;1.40;99.90
19172;DHT22;9718;52.200;21.052;2022-11-21T16:05:18;1.40;99.90
19172;DHT22;9718;52.200;21.052;2022-11-21T16:07:45;1.40;99.90
19172;DHT22;9718;52.200;21.052;2022-11-21T16:10:14;1.50;99.90
19172;DHT22;9718;52.200;21.052;2022-11-21T16:12:53;1.40;99.90
19172;DHT22;9718;52.200;21.052;2022-11-21T16:15:21;1.40;99.90
19172;DHT22;9718;52.200;21.052;2022-11-21T16:17:50;1.40;99.90
19172;DHT22;9718;52.200;21.052;2022-11-21T16:20:18;1.40;99.90
19172;DHT22;9718;52.200;21.052;2022-11-21T16:22:45;1.40;99.90
19172;DHT22;9718;52.200;21.052;2022-11-21T16:25:14;1.30;99.90
19172;DHT22;9718;52.200;21.052;2022-11-21T16:27:42;1.30;99.90
19172;DHT22;9718;52.200;21.052;2022-11-21T16:30:10;1.30;99.90
19172;DHT22;9718;52.200;21.052;2022-11-21T16:32:38;1.30;99.90
19172;DHT22;9718;52.200;21.052;2022-11-21T16:35:06;1.30;99.90
19172;DHT22;9718;52.200;21.052;2022-11-21T16:37:33;1.40;99.90
19172;DHT22;9718;52.200;21.052;2022-11-21T16:40:00;1.40;99.90
19172;DHT22;9718;52.200;21.052;2022-11-21T16:42:28;1.40;99.90
19172;DHT22;9718;52.200;21.052;2022-11-21T16:44:55;1.30;99.90
19172;DHT22;9718;52.200;21.052;2022-11-21T16:47:23;1.30;99.90
19172;DHT22;9718;52.200;21.052;2022-11-21T16:49:51;1.30;99.90
19172;DHT22;9718;52.200;21.052;2022-11-21T16:52:19;1.30;99.90
19172;DHT22;9718;52.200;21.052;2022-11-21T16:54:47;1.30;99.90
19172;DHT22;9718;52.200;21.052;2022-11-21T16:57:15;1.30;99.90
19172;DHT22;9718;52.200;21.052;2022-11-21T16:59:42;1.30;99.90
19172;DHT22;9718;52.200;21.052;2022-11-21T17:02:10;1.30;99.90
19172;DHT22;9718;52.200;21.052;2022-11-21T17:04:37;1.30;99.90
19172;DHT22;9718;52.200;21.052;2022-11-21T17:07:05;1.30;99.90
19172;DHT22;9718;52.200;21.052;2022-11-21T17:09:32;1.30;99.90
19172;DHT22;9718;52.200;21.052;2022-11-21T17:12:00;1.30;99.90
19172;DHT22;9718;52.200;21.052;2022-11-21T17:14:28;1.30;99.90
19172;DHT22;9718;52.200;21.052;2022-11-21T17:16:56;1.20;99.90
19172;DHT22;9718;52.200;21.052;2022-11-21T17:19:25;1.20;99.90
19172;DHT22;9718;52.200;21.052;2022-11-21T17:21:53;1.20;99.90
19172;DHT22;9718;52.200;21.052;2022-11-21T17:24:20;1.20;99.90
19172;DHT22;9718;52.200;21.052;2022-11-21T17:26:48;1.20;99.90
19172;DHT22;9718;52.200;21.052;2022-11-21T17:29:15;1.30;99.90
19172;DHT22;9718;52.200;21.052;2022-11-21T17:31:43;1.30;99.90
19172;DHT22;9718;52.200;21.052;2022-11-21T17:34:10;1.40;99.90
19172;DHT22;9718;52.200;21.052;2022-11-21T17:36:38;1.40;99.90
19172;DHT22;9718;52.200;21.052;2022-11-21T17:39:05;1.40;99.90
19172;DHT22;9718;52.200;21.052;2022-11-21T17:41:33;1.30;99.90
19172;DHT22;9718;52.200;21.052;2022-11-21T17:44:00;1.40;99.90
19172;DHT22;9718;52.200;21.052;2022-11-21T17:46:29;1.40;99.90
19172;DHT22;9718;52.200;21.052;2022-11-21T17:48:57;1.40;99.90
19172;DHT22;9718;52.200;21.052;2022-11-21T17:51:28;1.40;99.90
19172;DHT22;9718;52.200;21.052;2022-11-21T17:53:56;1.40;99.90
19172;DHT22;9718;52.200;21.052;2022-11-21T17:56:26;1.50;99.90
19172;DHT22;9718;52.200;21.052;2022-11-21T17:58:54;1.40;99.90
19172;DHT22;9718;52.200;21.052;2022-11-21T18:01:22;1.40;99.90
19172;DHT22;9718;52.200;21.052;2022-11-21T18:03:58;1.40;99.90
19172;DHT22;9718;52.200;21.052;2022-11-21T18:06:27;1.50;99.90
19172;DHT22;9718;52.200;21.052;2022-11-21T18:08:55;1.50;99.90
19172;DHT22;9718;52.200;21.052;2022-11-21T18:11:30;1.40;99.90
19172;DHT22;9718;52.200;21.052;2022-11-21T18:14:07;1.40;99.90
19172;DHT22;9718;52.200;21.052;2022-11-21T18:16:35;1.50;99.90
19172;DHT22;9718;52.200;21.052;2022-11-21T18:19:12;1.40;99.90
19172;DHT22;9718;52.200;21.052;2022-11-21T18:21:40;1.50;99.90
19172;DHT22;9718;52.200;21.052;2022-11-21T18:24:07;1.50;99.90
19172;DHT22;9718;52.200;21.052;2022-11-21T18:26:38;1.50;99.90
19172;DHT22;9718;52.200;21.052;2022-11-21T18:29:07;1.50;99.90
19172;DHT22;9718;52.200;21.052;2022-11-21T18:31:55;1.50;99.90
19172;DHT22;9718;52.200;21.052;2022-11-21T18:34:22;1.50;99.90
19172;DHT22;9718;52.200;21.052;2022-11-21T18:36:50;1.50;99.90